createdAt,value
2018-12-27T00:00:57.746Z,0.00
2018-12-27T00:01:57.703Z,0.00
2018-12-27T00:02:57.647Z,0.00
2018-12-27T00:03:57.601Z,0.00
2018-12-27T00:04:57.581Z,0.00
2018-12-27T00:05:57.510Z,0.00
2018-12-27T00:06:57.470Z,0.00
2018-12-27T00:07:57.427Z,0.00
2018-12-27T00:08:57.383Z,0.00
2018-12-27T00:09:57.360Z,0.00
2018-12-27T00:10:57.280Z,0.00
2018-12-27T00:11:57.232Z,0.00
2018-12-27T00:12:57.195Z,0.00
2018-12-27T00:13:57.148Z,0.00
2018-12-27T00:14:57.098Z,0.00
2018-12-27T00:15:57.075Z,0.00
2018-12-27T00:16:57.006Z,0.00
2018-12-27T00:17:56.955Z,0.00
2018-12-27T00:18:56.926Z,0.00
2018-12-27T00:19:56.869Z,0.00
2018-12-27T00:20:56.849Z,0.00
2018-12-27T00:21:56.785Z,0.00
2018-12-27T00:22:56.730Z,0.00
2018-12-27T00:23:56.681Z,0.00
2018-12-27T00:24:56.636Z,0.00
2018-12-27T00:25:56.612Z,0.00
2018-12-27T00:26:56.551Z,0.00
2018-12-27T00:27:56.511Z,0.00
2018-12-27T00:28:56.451Z,0.00
2018-12-27T00:29:56.407Z,0.00
2018-12-27T00:30:56.398Z,0.00
2018-12-27T00:31:56.322Z,0.00
2018-12-27T00:33:02.924Z,0.00
2018-12-27T00:33:56.229Z,0.00
2018-12-27T00:34:56.200Z,0.00
2018-12-27T00:35:56.156Z,0.00
2018-12-27T00:36:56.088Z,0.00
2018-12-27T00:37:56.039Z,0.00
2018-12-27T00:38:56.004Z,0.00
2018-12-27T00:39:55.953Z,0.00
2018-12-27T00:40:55.909Z,0.00
2018-12-27T00:41:55.892Z,0.00
2018-12-27T00:42:55.812Z,0.00
2018-12-27T00:43:55.764Z,0.00
2018-12-27T00:44:55.724Z,0.00
2018-12-27T00:45:55.682Z,0.00
2018-12-27T00:46:55.627Z,0.00
2018-12-27T00:47:55.601Z,0.00
2018-12-27T00:48:55.535Z,0.00
2018-12-27T00:49:55.485Z,0.00
2018-12-27T00:50:55.450Z,0.00
2018-12-27T00:51:55.431Z,0.00
2018-12-27T00:52:55.360Z,0.00
2018-12-27T00:53:55.310Z,0.00
2018-12-27T00:54:55.257Z,0.00
2018-12-27T00:55:55.212Z,0.00
2018-12-27T00:56:55.165Z,0.00
2018-12-27T00:57:55.146Z,0.00
2018-12-27T00:58:55.108Z,0.00
2018-12-27T00:59:55.037Z,0.00
2018-12-27T01:00:54.980Z,0.00
2018-12-27T01:01:54.937Z,0.00
2018-12-27T01:02:54.894Z,0.00
2018-12-27T01:03:54.847Z,0.00
2018-12-27T01:04:54.830Z,0.00
2018-12-27T01:05:54.763Z,0.00
2018-12-27T01:06:54.706Z,0.00
2018-12-27T01:07:54.662Z,0.00
2018-12-27T01:08:54.636Z,0.00
2018-12-27T01:09:54.567Z,0.00
2018-12-27T01:10:54.531Z,0.00
2018-12-27T01:11:54.480Z,0.00
2018-12-27T01:12:54.439Z,0.00
2018-12-27T01:13:54.413Z,0.00
2018-12-27T01:14:54.337Z,0.00
2018-12-27T01:15:54.290Z,0.00
2018-12-27T01:16:54.249Z,0.00
2018-12-27T01:17:54.203Z,0.00
2018-12-27T01:18:54.176Z,0.00
2018-12-27T01:19:54.106Z,0.00
2018-12-27T01:20:54.059Z,0.00
2018-12-27T01:21:54.015Z,0.00
2018-12-27T01:22:53.976Z,0.00
2018-12-27T01:23:53.956Z,0.00
2018-12-27T01:24:53.878Z,0.00
2018-12-27T01:25:53.830Z,0.00
2018-12-27T01:26:53.792Z,0.00
2018-12-27T01:27:53.745Z,0.00
2018-12-27T01:28:53.698Z,0.00
2018-12-27T01:29:53.675Z,0.00
2018-12-27T01:30:53.602Z,0.00
2018-12-27T01:31:53.553Z,0.00
2018-12-27T01:32:53.518Z,0.00
2018-12-27T01:33:53.491Z,0.00
2018-12-27T01:34:53.438Z,0.00
2018-12-27T01:35:53.366Z,0.00
2018-12-27T01:36:53.320Z,0.00
2018-12-27T01:37:53.277Z,0.00
2018-12-27T01:38:53.258Z,0.00
2018-12-27T01:39:53.194Z,0.00
2018-12-27T01:40:53.142Z,0.00
2018-12-27T01:41:53.099Z,0.00
2018-12-27T01:42:53.047Z,0.00
2018-12-27T01:43:53.024Z,0.00
2018-12-27T01:44:52.953Z,0.00
2018-12-27T01:45:52.908Z,0.00
2018-12-27T01:46:52.868Z,0.00
2018-12-27T01:47:52.822Z,0.00
2018-12-27T01:48:52.794Z,0.00
2018-12-27T01:49:52.724Z,0.00
2018-12-27T01:50:52.686Z,0.00
2018-12-27T01:51:52.638Z,0.00
2018-12-27T01:52:52.593Z,0.00
2018-12-27T01:53:52.574Z,0.00
2018-12-27T01:54:52.517Z,0.00
2018-12-27T01:55:52.451Z,0.00
2018-12-27T01:56:52.402Z,0.00
2018-12-27T01:57:52.362Z,0.00
2018-12-27T01:58:52.319Z,0.00
2018-12-27T01:59:52.292Z,0.00
2018-12-27T02:00:52.227Z,0.00
2018-12-27T02:01:52.180Z,0.00
2018-12-27T02:02:52.126Z,0.00
2018-12-27T02:03:52.081Z,0.00
2018-12-27T02:04:52.064Z,0.00
2018-12-27T02:05:51.997Z,0.00
2018-12-27T02:06:51.945Z,0.00
2018-12-27T02:07:51.919Z,0.00
2018-12-27T02:08:51.850Z,0.00
2018-12-27T02:09:51.801Z,0.00
2018-12-27T02:10:51.765Z,0.00
2018-12-27T02:11:51.748Z,0.00
2018-12-27T02:12:51.676Z,0.00
2018-12-27T02:13:51.628Z,0.00
2018-12-27T02:14:51.577Z,0.00
2018-12-27T02:15:51.558Z,0.00
2018-12-27T02:16:51.484Z,0.00
2018-12-27T02:17:51.463Z,0.00
2018-12-27T02:18:51.402Z,0.00
2018-12-27T02:19:51.351Z,0.00
2018-12-27T02:20:59.253Z,0.00
2018-12-27T02:21:51.262Z,0.00
2018-12-27T02:22:51.217Z,0.00
2018-12-27T02:24:00.226Z,0.00
2018-12-27T02:25:00.282Z,0.00
2018-12-27T02:26:00.300Z,0.00
2018-12-27T02:26:59.849Z,0.00
2018-12-27T02:28:00.360Z,0.00
2018-12-27T02:29:00.408Z,0.00
2018-12-27T02:29:59.932Z,0.00
2018-12-27T02:30:59.966Z,0.00
2018-12-27T02:32:01.011Z,0.00
2018-12-27T02:32:59.549Z,0.00
2018-12-27T02:34:00.067Z,0.00
2018-12-27T02:35:00.157Z,0.00
2018-12-27T02:35:59.652Z,0.00
2018-12-27T02:36:59.188Z,0.00
2018-12-27T02:37:59.709Z,0.00
2018-12-27T02:38:58.244Z,0.00
2018-12-27T02:39:58.283Z,0.00
2018-12-27T02:40:59.799Z,0.00
2018-12-27T02:41:57.364Z,0.00
2018-12-27T02:42:59.378Z,0.00
2018-12-27T02:43:50.227Z,0.00
2018-12-27T02:44:50.187Z,0.00
2018-12-27T02:45:50.140Z,0.00
2018-12-27T02:46:50.116Z,0.00
2018-12-27T02:47:50.066Z,0.00
2018-12-27T02:48:49.987Z,0.00
2018-12-27T02:49:49.941Z,0.00
2018-12-27T02:50:49.895Z,0.00
2018-12-27T02:51:49.846Z,0.00
2018-12-27T02:52:49.832Z,0.00
2018-12-27T02:53:49.764Z,0.00
2018-12-27T02:54:49.720Z,0.00
2018-12-27T02:55:49.665Z,0.00
2018-12-27T02:56:49.650Z,0.00
2018-12-27T02:57:49.567Z,0.00
2018-12-27T02:58:58.907Z,0.00
2018-12-27T02:59:58.946Z,0.00
2018-12-27T03:00:49.433Z,0.00
2018-12-27T03:01:49.392Z,0.00
2018-12-27T03:02:49.370Z,0.00
2018-12-27T03:03:49.329Z,0.00
2018-12-27T03:04:49.244Z,0.00
2018-12-27T03:05:49.197Z,0.00
2018-12-27T03:06:49.171Z,0.00
2018-12-27T03:07:49.100Z,0.00
2018-12-27T03:08:49.083Z,0.00
2018-12-27T03:09:49.017Z,0.00
2018-12-27T03:10:48.966Z,0.00
2018-12-27T03:11:48.919Z,0.00
2018-12-27T03:12:48.901Z,0.00
2018-12-27T03:13:48.833Z,0.00
2018-12-27T03:14:48.791Z,0.00
2018-12-27T03:15:48.738Z,0.00
2018-12-27T03:16:48.682Z,0.00
2018-12-27T03:17:48.673Z,0.00
2018-12-27T03:18:48.598Z,0.00
2018-12-27T03:19:48.551Z,0.00
2018-12-27T03:20:48.504Z,0.00
2018-12-27T03:21:48.464Z,0.00
2018-12-27T03:22:48.441Z,0.00
2018-12-27T03:23:48.370Z,0.00
2018-12-27T03:24:48.320Z,0.00
2018-12-27T03:25:48.294Z,0.00
2018-12-27T03:26:48.234Z,0.00
2018-12-27T03:27:48.187Z,0.00
2018-12-27T03:28:48.131Z,0.00
2018-12-27T03:29:48.112Z,0.00
2018-12-27T03:30:48.101Z,0.00
2018-12-27T03:31:47.995Z,0.00
2018-12-27T03:32:47.954Z,0.00
2018-12-27T03:33:52.606Z,0.00
2018-12-27T03:34:47.861Z,0.00
2018-12-27T03:35:47.842Z,0.00
2018-12-27T03:36:47.762Z,0.00
2018-12-27T03:37:47.717Z,0.00
2018-12-27T03:38:47.671Z,0.00
2018-12-27T03:39:47.623Z,0.00
2018-12-27T03:40:47.609Z,0.00
2018-12-27T03:41:47.542Z,0.00
2018-12-27T03:42:47.486Z,0.00
2018-12-27T03:43:47.434Z,0.00
2018-12-27T03:44:47.398Z,0.00
2018-12-27T03:45:47.375Z,0.00
2018-12-27T03:46:47.307Z,0.00
2018-12-27T03:47:47.258Z,0.00
2018-12-27T03:48:47.205Z,0.00
2018-12-27T03:49:47.161Z,0.00
2018-12-27T03:50:47.134Z,0.00
2018-12-27T03:51:47.066Z,0.00
2018-12-27T03:52:47.032Z,0.00
2018-12-27T03:53:46.979Z,0.00
2018-12-27T03:54:46.935Z,0.00
2018-12-27T03:55:46.907Z,0.00
2018-12-27T03:56:46.829Z,0.00
2018-12-27T03:57:46.791Z,0.00
2018-12-27T03:58:46.746Z,0.00
2018-12-27T03:59:46.698Z,0.00
2018-12-27T04:00:46.676Z,0.00
2018-12-27T04:01:46.600Z,0.00
2018-12-27T04:02:46.554Z,0.00
2018-12-27T04:03:46.508Z,0.00
2018-12-27T04:04:46.467Z,0.00
2018-12-27T04:05:46.420Z,0.00
2018-12-27T04:06:46.400Z,0.00
2018-12-27T04:07:46.326Z,0.00
2018-12-27T04:08:46.285Z,0.00
2018-12-27T04:09:46.248Z,0.00
2018-12-27T04:10:46.178Z,0.00
2018-12-27T04:11:46.137Z,0.00
2018-12-27T04:12:46.122Z,0.00
2018-12-27T04:13:46.045Z,0.00
2018-12-27T04:14:45.990Z,0.00
2018-12-27T04:15:45.944Z,0.00
2018-12-27T04:16:45.904Z,0.00
2018-12-27T04:17:45.856Z,0.00
2018-12-27T04:18:45.840Z,0.00
2018-12-27T04:19:45.762Z,0.00
2018-12-27T04:20:45.708Z,0.00
2018-12-27T04:21:45.661Z,0.00
2018-12-27T04:22:45.614Z,0.00
2018-12-27T04:23:45.570Z,0.00
2018-12-27T04:24:45.552Z,0.00
2018-12-27T04:25:45.485Z,0.00
2018-12-27T04:26:45.436Z,0.00
2018-12-27T04:27:45.390Z,0.00
2018-12-27T04:28:45.333Z,0.00
2018-12-27T04:29:45.305Z,0.00
2018-12-27T04:30:45.246Z,0.00
2018-12-27T04:31:45.196Z,0.00
2018-12-27T04:32:45.139Z,0.00
2018-12-27T04:33:45.099Z,0.00
2018-12-27T04:34:45.076Z,0.00
2018-12-27T04:35:45.002Z,0.00
2018-12-27T04:36:44.986Z,0.00
2018-12-27T04:37:44.916Z,0.00
2018-12-27T04:38:44.867Z,0.00
2018-12-27T04:39:44.843Z,0.00
2018-12-27T04:40:44.765Z,0.00
2018-12-27T04:41:44.748Z,0.00
2018-12-27T04:42:44.676Z,0.00
2018-12-27T04:43:44.625Z,0.00
2018-12-27T04:44:44.586Z,0.00
2018-12-27T04:45:44.535Z,0.00
2018-12-27T04:46:44.506Z,0.00
2018-12-27T04:47:44.463Z,0.00
2018-12-27T04:48:44.400Z,0.00
2018-12-27T04:49:44.357Z,0.00
2018-12-27T04:50:44.309Z,0.00
2018-12-27T04:51:44.353Z,0.00
2018-12-27T04:52:44.200Z,0.00
2018-12-27T04:55:16.894Z,0.00
2018-12-27T04:56:16.087Z,0.00
2018-12-27T04:57:16.046Z,0.00
2018-12-27T04:58:16.009Z,0.00
2018-12-27T04:59:15.978Z,0.00
2018-12-27T05:00:15.918Z,0.00
2018-12-27T05:01:15.858Z,0.00
2018-12-27T05:02:15.799Z,0.00
2018-12-27T05:03:15.754Z,0.00
2018-12-27T05:04:18.280Z,0.00
2018-12-27T05:05:15.669Z,0.00
2018-12-27T05:06:15.619Z,0.00
2018-12-27T05:07:15.603Z,0.00
2018-12-27T05:08:15.526Z,0.00
2018-12-27T05:09:16.183Z,0.00
2018-12-27T05:10:15.409Z,0.00
2018-12-27T05:11:15.374Z,0.00
2018-12-27T05:12:15.355Z,0.00
2018-12-27T05:13:15.297Z,0.00
2018-12-27T05:14:15.256Z,0.00
2018-12-27T05:15:15.177Z,0.00
2018-12-27T05:16:15.128Z,0.00
2018-12-27T05:17:15.138Z,0.00
2018-12-27T05:18:15.050Z,0.00
2018-12-27T05:19:14.989Z,0.00
2018-12-27T05:20:14.965Z,0.00
2018-12-27T05:21:14.909Z,0.00
2018-12-27T05:22:14.864Z,0.00
2018-12-27T05:23:14.824Z,0.00
2018-12-27T05:24:14.764Z,0.00
2018-12-27T05:25:14.731Z,0.00
2018-12-27T05:26:14.686Z,0.00
2018-12-27T05:27:14.621Z,0.00
2018-12-27T05:28:14.560Z,0.00
2018-12-27T05:29:24.416Z,0.00
2018-12-27T05:30:14.521Z,0.00
2018-12-27T05:31:14.423Z,0.00
2018-12-27T05:32:14.371Z,0.00
2018-12-27T05:33:14.363Z,0.00
2018-12-27T05:34:14.273Z,0.00
2018-12-27T05:35:14.237Z,0.00
2018-12-27T05:36:14.198Z,0.00
2018-12-27T05:37:14.161Z,0.00
2018-12-27T05:38:14.814Z,0.00
2018-12-27T05:39:14.068Z,0.00
2018-12-27T05:40:14.026Z,0.00
2018-12-27T05:41:13.944Z,0.00
2018-12-27T05:42:13.902Z,0.00
2018-12-27T05:43:13.850Z,0.00
2018-12-27T05:44:13.816Z,0.00
2018-12-27T05:45:13.748Z,0.00
2018-12-27T05:46:13.735Z,0.00
2018-12-27T05:47:13.663Z,0.00
2018-12-27T05:48:13.633Z,0.00
2018-12-27T05:49:13.570Z,0.00
2018-12-27T05:50:13.554Z,0.00
2018-12-27T05:51:13.500Z,0.00
2018-12-27T05:52:13.423Z,0.00
2018-12-27T05:53:13.381Z,0.00
2018-12-27T05:54:13.345Z,0.00
2018-12-27T05:55:13.284Z,0.00
2018-12-27T05:56:13.260Z,0.00
2018-12-27T05:57:13.215Z,0.00
2018-12-27T05:58:13.155Z,0.00
2018-12-27T05:59:13.077Z,0.00
2018-12-27T06:00:13.058Z,0.00
2018-12-27T06:01:13.007Z,0.00
2018-12-27T06:02:12.991Z,0.00
2018-12-27T06:03:12.897Z,0.00
2018-12-27T06:04:12.853Z,0.00
2018-12-27T06:05:12.806Z,0.00
2018-12-27T06:06:12.776Z,0.00
2018-12-27T06:07:12.739Z,0.00
2018-12-27T06:08:12.662Z,0.00
2018-12-27T06:09:12.624Z,0.00
2018-12-27T06:10:12.566Z,0.00
2018-12-27T06:11:12.533Z,0.00
2018-12-27T06:12:12.462Z,0.00
2018-12-27T06:13:12.450Z,0.00
2018-12-27T06:14:12.376Z,0.00
2018-12-27T06:15:12.346Z,0.00
2018-12-27T06:16:12.295Z,0.00
2018-12-27T06:17:12.325Z,0.00
2018-12-27T06:18:12.192Z,0.00
2018-12-27T06:19:12.170Z,0.00
2018-12-27T06:20:12.081Z,0.00
2018-12-27T06:21:12.041Z,0.00
2018-12-27T06:22:11.995Z,0.00
2018-12-27T06:23:11.958Z,0.00
2018-12-27T06:24:11.939Z,0.00
2018-12-27T06:25:11.858Z,0.00
2018-12-27T06:26:11.811Z,0.00
2018-12-27T06:27:11.757Z,0.00
2018-12-27T06:28:11.725Z,0.00
2018-12-27T06:29:11.663Z,0.00
2018-12-27T06:30:11.635Z,0.00
2018-12-27T06:31:11.558Z,0.00
2018-12-27T06:32:11.541Z,0.00
2018-12-27T06:33:11.464Z,0.00
2018-12-27T06:34:11.425Z,0.00
2018-12-27T06:35:11.398Z,0.00
2018-12-27T06:36:11.364Z,0.00
2018-12-27T06:37:11.269Z,0.00
2018-12-27T06:38:11.234Z,0.00
2018-12-27T06:39:11.201Z,0.00
2018-12-27T06:40:11.156Z,0.00
2018-12-27T06:41:11.095Z,0.00
2018-12-27T06:42:11.047Z,0.00
2018-12-27T06:43:11.012Z,0.00
2018-12-27T06:44:10.958Z,0.00
2018-12-27T06:45:10.912Z,0.00
2018-12-27T06:46:10.845Z,0.00
2018-12-27T06:47:10.831Z,0.00
2018-12-27T06:48:10.750Z,0.00
2018-12-27T06:49:10.708Z,0.00
2018-12-27T06:50:10.685Z,0.00
2018-12-27T06:51:10.614Z,0.00
2018-12-27T06:52:10.577Z,0.00
2018-12-27T06:53:10.514Z,0.00
2018-12-27T06:54:10.465Z,0.00
2018-12-27T06:55:10.440Z,0.00
2018-12-27T06:56:10.374Z,4.00
2018-12-27T06:57:10.315Z,4.00
2018-12-27T06:58:10.302Z,4.00
2018-12-27T06:59:10.219Z,0.00
2018-12-27T07:00:10.184Z,4.00
2018-12-27T07:01:10.135Z,4.00
2018-12-27T07:02:10.079Z,8.00
2018-12-27T07:03:10.048Z,4.00
2018-12-27T07:04:10.028Z,8.00
2018-12-27T07:05:09.944Z,8.00
2018-12-27T07:06:09.896Z,8.00
2018-12-27T07:07:09.854Z,8.00
2018-12-27T07:08:09.820Z,8.00
2018-12-27T07:09:09.782Z,12.00
2018-12-27T07:10:09.681Z,16.00
2018-12-27T07:11:09.650Z,16.00
2018-12-27T07:12:09.626Z,20.00
2018-12-27T07:13:09.561Z,24.00
2018-12-27T07:14:09.545Z,28.00
2018-12-27T07:15:09.476Z,32.00
2018-12-27T07:16:09.409Z,36.00
2018-12-27T07:17:09.364Z,44.00
2018-12-27T07:18:09.315Z,48.00
2018-12-27T07:19:09.265Z,52.00
2018-12-27T07:20:09.242Z,60.00
2018-12-27T07:21:09.165Z,64.00
2018-12-27T07:22:09.115Z,76.00
2018-12-27T07:23:09.079Z,84.00
2018-12-27T07:24:09.031Z,92.00
2018-12-27T07:25:08.989Z,104.00
2018-12-27T07:26:08.947Z,116.00
2018-12-27T07:27:08.893Z,128.00
2018-12-27T07:28:08.836Z,144.00
2018-12-27T07:29:08.776Z,160.00
2018-12-27T07:30:08.729Z,180.00
2018-12-27T07:31:08.710Z,204.00
2018-12-27T07:32:08.643Z,220.00
2018-12-27T07:33:08.602Z,244.00
2018-12-27T07:34:08.546Z,264.00
2018-12-27T07:35:08.515Z,284.00
2018-12-27T07:36:08.459Z,308.00
2018-12-27T07:37:08.406Z,332.00
2018-12-27T07:38:08.377Z,356.00
2018-12-27T07:39:08.324Z,380.00
2018-12-27T07:40:08.260Z,404.00
2018-12-27T07:41:19.209Z,428.00
2018-12-27T07:42:17.964Z,456.00
2018-12-27T07:43:08.136Z,484.00
2018-12-27T07:44:08.061Z,520.00
2018-12-27T07:45:08.028Z,560.00
2018-12-27T07:46:11.006Z,600.00
2018-12-27T07:47:07.941Z,640.00
2018-12-27T07:48:07.903Z,688.00
2018-12-27T07:49:08.095Z,728.00
2018-12-27T07:50:07.783Z,760.00
2018-12-27T07:51:07.728Z,800.00
2018-12-27T07:52:07.695Z,844.00
2018-12-27T07:53:07.654Z,884.00
2018-12-27T07:54:07.591Z,924.00
2018-12-27T07:55:07.535Z,968.00
2018-12-27T07:56:07.490Z,1008.00
2018-12-27T07:57:07.548Z,1052.00
2018-12-27T07:58:07.434Z,1092.00
2018-12-27T07:59:07.345Z,1140.00
2018-12-27T08:00:07.313Z,1184.00
2018-12-27T08:01:16.523Z,1224.00
2018-12-27T08:02:07.310Z,1268.00
2018-12-27T08:03:16.967Z,1312.00
2018-12-27T08:04:08.029Z,1356.00
2018-12-27T08:05:16.905Z,1400.00
2018-12-27T08:06:07.009Z,1440.00
2018-12-27T08:08:53.371Z,1544.00
2018-12-27T08:09:55.575Z,1584.00
2018-12-27T08:10:55.807Z,1628.00
2018-12-27T08:12:01.870Z,1668.00
2018-12-27T08:12:55.469Z,1700.00
2018-12-27T08:13:45.498Z,1732.00
2018-12-27T08:14:45.502Z,1768.00
2018-12-27T08:15:45.955Z,1812.00
2018-12-27T08:16:45.337Z,1852.00
2018-12-27T08:17:45.290Z,1896.00
2018-12-27T08:18:45.270Z,1944.00
2018-12-27T08:19:45.234Z,1992.00
2018-12-27T08:20:45.143Z,2036.00
2018-12-27T08:21:45.120Z,2088.00
2018-12-27T08:22:45.102Z,2148.00
2018-12-27T08:23:45.004Z,2212.00
2018-12-27T08:24:44.995Z,2280.00
2018-12-27T08:25:44.950Z,2352.00
2018-12-27T08:26:44.874Z,2440.00
2018-12-27T08:27:44.826Z,2548.00
2018-12-27T08:28:44.783Z,2664.00
2018-12-27T08:29:44.867Z,2760.00
2018-12-27T08:30:44.678Z,2884.00
2018-12-27T08:31:44.638Z,2972.00
2018-12-27T08:32:44.584Z,3044.00
2018-12-27T08:33:44.536Z,3124.00
2018-12-27T08:34:44.489Z,3308.00
2018-12-27T08:35:44.527Z,3488.00
2018-12-27T08:36:44.390Z,3612.00
2018-12-27T08:37:44.356Z,3800.00
2018-12-27T08:38:44.299Z,3756.00
2018-12-27T08:39:44.246Z,3648.00
2018-12-27T08:40:44.203Z,3680.00
2018-12-27T08:41:44.241Z,3812.00
2018-12-27T08:42:44.137Z,3932.00
2018-12-27T08:43:44.211Z,3980.00
2018-12-27T08:44:44.098Z,4060.00
2018-12-27T08:45:44.041Z,3920.00
2018-12-27T08:46:43.930Z,3708.00
2018-12-27T08:47:44.479Z,3648.00
2018-12-27T08:48:43.860Z,3660.00
2018-12-27T08:49:43.782Z,3600.00
2018-12-27T08:50:43.807Z,3540.00
2018-12-27T08:51:43.857Z,3508.00
2018-12-27T08:52:43.706Z,3492.00
2018-12-27T08:53:43.660Z,3508.00
2018-12-27T08:54:43.689Z,3532.00
2018-12-27T08:55:43.547Z,3568.00
2018-12-27T08:56:43.514Z,3600.00
2018-12-27T08:57:43.418Z,3640.00
2018-12-27T08:58:43.376Z,3704.00
2018-12-27T08:59:43.369Z,3776.00
2018-12-27T09:00:43.321Z,3844.00
2018-12-27T09:01:43.239Z,3892.00
2018-12-27T09:02:43.196Z,3928.00
2018-12-27T09:03:43.152Z,3960.00
2018-12-27T09:04:43.104Z,3988.00
2018-12-27T09:05:43.052Z,4032.00
2018-12-27T09:06:43.088Z,4080.00
2018-12-27T09:07:43.027Z,4140.00
2018-12-27T09:08:42.928Z,4212.00
2018-12-27T09:09:42.898Z,4288.00
2018-12-27T09:10:42.936Z,4360.00
2018-12-27T09:11:42.909Z,4432.00
2018-12-27T09:12:42.885Z,4500.00
2018-12-27T09:13:42.685Z,4552.00
2018-12-27T09:14:42.733Z,4616.00
2018-12-27T09:15:42.598Z,4688.00
2018-12-27T09:16:42.582Z,4812.00
2018-12-27T09:17:42.545Z,4956.00
2018-12-27T09:18:42.473Z,5076.00
2018-12-27T09:19:42.456Z,5192.00
2018-12-27T09:20:42.361Z,5428.00
2018-12-27T09:21:42.341Z,5744.00
2018-12-27T09:22:42.302Z,5848.00
2018-12-27T09:23:42.299Z,5884.00
2018-12-27T09:24:42.221Z,6184.00
2018-12-27T09:25:42.263Z,6424.00
2018-12-27T09:26:42.098Z,6656.00
2018-12-27T09:27:42.099Z,6668.00
2018-12-27T09:28:42.047Z,6708.00
2018-12-27T09:29:42.011Z,6896.00
2018-12-27T09:30:41.948Z,7076.00
2018-12-27T09:31:42.044Z,7292.00
2018-12-27T09:32:41.882Z,7412.00
2018-12-27T09:33:52.063Z,7656.00
2018-12-27T09:36:28.979Z,8048.00
2018-12-27T09:37:21.625Z,8228.00
2018-12-27T09:38:21.371Z,8568.00
2018-12-27T09:39:20.621Z,8736.00
2018-12-27T09:40:20.552Z,8664.00
2018-12-27T09:41:21.562Z,8700.00
2018-12-27T09:42:21.067Z,9032.00
2018-12-27T09:43:21.171Z,8816.00
2018-12-27T09:44:20.353Z,8424.00
2018-12-27T09:45:20.257Z,8428.00
2018-12-27T09:46:20.239Z,7964.00
2018-12-27T09:47:20.167Z,8120.00
2018-12-27T09:48:20.171Z,7972.00
2018-12-27T09:49:20.173Z,7924.00
2018-12-27T09:50:20.064Z,7888.00
2018-12-27T09:51:20.039Z,7768.00
2018-12-27T09:52:20.327Z,7676.00
2018-12-27T09:56:33.099Z,8252.00
2018-12-27T09:57:32.163Z,8408.00
2018-12-27T09:58:32.118Z,8476.00
2018-12-27T09:59:32.102Z,8932.00
2018-12-27T10:00:32.032Z,9104.00
2018-12-27T10:01:31.987Z,9072.00
2018-12-27T10:02:31.992Z,9252.00
2018-12-27T10:03:31.919Z,9512.00
2018-12-27T10:04:32.279Z,9928.00
2018-12-27T10:05:33.979Z,10160.00
2018-12-27T10:06:32.091Z,10260.00
2018-12-27T10:07:31.898Z,10272.00
2018-12-27T10:08:31.733Z,9664.00
2018-12-27T10:09:31.722Z,9284.00
2018-12-27T10:10:31.644Z,9220.00
2018-12-27T10:11:31.577Z,9112.00
2018-12-27T10:12:31.571Z,8920.00
2018-12-27T10:13:31.495Z,9032.00
2018-12-27T10:14:31.448Z,8636.00
2018-12-27T10:15:31.435Z,8432.00
2018-12-27T10:16:31.364Z,8416.00
2018-12-27T10:17:31.344Z,8408.00
2018-12-27T10:18:31.271Z,8296.00
2018-12-27T10:19:31.256Z,8332.00
2018-12-27T10:20:31.214Z,8452.00
2018-12-27T10:21:31.157Z,8552.00
2018-12-27T10:22:31.154Z,8788.00
2018-12-27T10:23:31.098Z,9092.00
2018-12-27T10:24:31.047Z,9424.00
2018-12-27T10:25:31.020Z,9764.00
2018-12-27T10:26:30.980Z,10264.00
2018-12-27T10:27:30.909Z,10156.00
2018-12-27T10:28:30.861Z,10288.00
2018-12-27T10:29:30.858Z,10516.00
2018-12-27T10:30:30.762Z,10760.00
2018-12-27T10:31:30.747Z,10584.00
2018-12-27T10:32:30.711Z,10504.00
2018-12-27T10:33:30.635Z,10832.00
2018-12-27T10:34:30.601Z,10684.00
2018-12-27T10:35:30.574Z,10264.00
2018-12-27T10:36:30.541Z,9628.00
2018-12-27T10:37:30.509Z,9264.00
2018-12-27T10:38:30.454Z,9024.00
2018-12-27T10:39:30.434Z,8776.00
2018-12-27T10:40:30.347Z,8756.00
2018-12-27T10:41:30.302Z,8924.00
2018-12-27T10:42:30.293Z,9132.00
2018-12-27T10:43:30.228Z,9100.00
2018-12-27T10:44:30.184Z,8888.00
2018-12-27T10:45:30.129Z,8860.00
2018-12-27T10:46:30.106Z,8680.00
2018-12-27T10:47:30.105Z,8376.00
2018-12-27T10:48:30.027Z,8168.00
2018-12-27T10:49:29.993Z,8244.00
2018-12-27T10:50:29.950Z,8444.00
2018-12-27T10:51:29.894Z,8636.00
2018-12-27T10:52:29.876Z,8644.00
2018-12-27T10:53:29.841Z,8572.00
2018-12-27T10:54:29.803Z,8416.00
2018-12-27T10:55:29.717Z,8272.00
2018-12-27T10:56:29.689Z,8176.00
2018-12-27T10:57:29.679Z,8260.00
2018-12-27T10:58:29.600Z,8300.00
2018-12-27T10:59:29.581Z,8312.00
2018-12-27T11:00:29.531Z,8092.00
2018-12-27T11:01:29.491Z,7868.00
2018-12-27T11:02:29.433Z,7760.00
2018-12-27T11:03:30.742Z,7872.00
2018-12-27T11:04:29.334Z,8240.00
2018-12-27T11:05:29.319Z,8412.00
2018-12-27T11:06:29.380Z,8736.00
2018-12-27T11:07:29.210Z,8804.00
2018-12-27T11:08:29.216Z,8856.00
2018-12-27T11:09:29.348Z,8716.00
2018-12-27T11:10:29.102Z,9140.00
2018-12-27T11:11:29.081Z,9528.00
2018-12-27T11:12:28.996Z,9640.00
2018-12-27T11:13:29.020Z,9760.00
2018-12-27T11:14:28.938Z,9672.00
2018-12-27T11:15:28.868Z,9444.00
2018-12-27T11:16:28.847Z,9540.00
2018-12-27T11:17:28.831Z,9548.00
2018-12-27T11:18:30.274Z,9352.00
2018-12-27T11:19:28.749Z,9192.00
2018-12-27T11:20:28.662Z,8900.00
2018-12-27T11:21:28.619Z,8920.00
2018-12-27T11:22:28.573Z,9156.00
2018-12-27T11:23:28.575Z,9508.00
2018-12-27T11:24:28.538Z,9928.00
2018-12-27T11:25:28.504Z,10172.00
2018-12-27T11:26:28.404Z,10692.00
2018-12-27T11:27:28.372Z,10952.00
2018-12-27T11:28:28.324Z,11196.00
2018-12-27T11:29:28.334Z,11036.00
2018-12-27T11:30:28.250Z,10816.00
2018-12-27T11:31:28.217Z,10668.00
2018-12-27T11:32:28.175Z,10628.00
2018-12-27T11:33:28.132Z,10664.00
2018-12-27T11:34:28.103Z,10744.00
2018-12-27T11:35:28.065Z,10920.00
2018-12-27T11:36:28.003Z,10996.00
2018-12-27T11:37:27.958Z,10788.00
2018-12-27T11:38:27.913Z,10456.00
2018-12-27T11:39:27.877Z,10124.00
2018-12-27T11:40:27.853Z,9824.00
2018-12-27T11:41:27.787Z,9296.00
2018-12-27T11:42:27.780Z,9320.00
2018-12-27T11:43:27.725Z,9492.00
2018-12-27T11:44:27.709Z,9344.00
2018-12-27T11:45:27.654Z,9208.00
2018-12-27T11:46:27.581Z,9216.00
2018-12-27T11:47:27.563Z,9084.00
2018-12-27T11:48:27.493Z,9008.00
2018-12-27T11:49:27.459Z,8944.00
2018-12-27T11:50:27.417Z,8860.00
2018-12-27T11:51:27.401Z,8880.00
2018-12-27T11:52:27.356Z,8504.00
2018-12-27T11:53:27.310Z,8504.00
2018-12-27T11:54:27.382Z,8600.00
2018-12-27T11:55:27.258Z,8424.00
2018-12-27T11:56:27.204Z,8168.00
2018-12-27T11:57:27.132Z,7944.00
2018-12-27T11:58:27.177Z,7904.00
2018-12-27T11:59:27.040Z,7808.00
2018-12-27T12:00:27.045Z,7712.00
2018-12-27T12:01:27.009Z,7596.00
2018-12-27T12:02:31.127Z,7532.00
2018-12-27T12:03:26.873Z,7480.00
2018-12-27T12:04:26.912Z,7404.00
2018-12-27T12:07:13.253Z,7348.00
2018-12-27T12:08:07.007Z,7268.00
2018-12-27T12:09:22.514Z,7256.00
2018-12-27T12:10:06.866Z,7288.00
2018-12-27T12:11:05.900Z,7308.00
2018-12-27T12:12:09.148Z,7280.00
2018-12-27T12:13:07.138Z,7244.00
2018-12-27T12:16:44.301Z,7116.00
2018-12-27T12:17:37.674Z,7236.00
2018-12-27T12:18:44.433Z,7208.00
2018-12-27T12:19:41.835Z,7156.00
2018-12-27T12:20:37.504Z,7268.00
2018-12-27T12:21:37.533Z,7252.00
2018-12-27T12:22:37.470Z,7236.00
2018-12-27T12:25:01.971Z,7528.00
2018-12-27T12:26:37.248Z,8124.00
2018-12-27T12:27:37.212Z,8652.00
2018-12-27T12:28:37.196Z,8796.00
2018-12-27T12:29:37.109Z,8480.00
2018-12-27T12:30:37.076Z,8024.00
2018-12-27T12:31:37.053Z,7808.00
2018-12-27T12:32:37.026Z,7772.00
2018-12-27T12:33:37.013Z,7688.00
2018-12-27T12:34:36.930Z,7616.00
2018-12-27T12:35:36.906Z,7472.00
2018-12-27T12:36:36.840Z,7164.00
2018-12-27T12:37:53.077Z,6836.00
2018-12-27T12:38:36.777Z,6584.00
2018-12-27T12:39:36.704Z,6320.00
2018-12-27T12:40:36.746Z,6128.00
2018-12-27T12:41:36.681Z,5932.00
2018-12-27T12:42:37.554Z,5876.00
2018-12-27T12:43:38.137Z,5784.00
2018-12-27T12:44:36.495Z,5768.00
2018-12-27T12:45:36.541Z,5712.00
2018-12-27T12:46:36.488Z,5652.00
2018-12-27T12:47:36.403Z,5624.00
2018-12-27T12:48:36.354Z,5628.00
2018-12-27T12:49:36.304Z,5644.00
2018-12-27T12:50:36.254Z,5660.00
2018-12-27T12:51:36.195Z,5676.00
2018-12-27T12:52:36.181Z,5692.00
2018-12-27T12:53:36.122Z,5672.00
2018-12-27T12:54:36.100Z,5608.00
2018-12-27T12:55:36.043Z,5532.00
2018-12-27T12:56:36.836Z,5460.00
2018-12-27T12:57:35.985Z,5408.00
2018-12-27T12:58:35.924Z,5384.00
2018-12-27T12:59:35.890Z,5364.00